CST,Max TemperatureF,Mean TemperatureF,Min TemperatureF,Max Dew PointF,MeanDew PointF,Min DewpointF,Max Humidity, Mean Humidity, Min Humidity, Max Sea Level PressureIn, Mean Sea Level PressureIn, Min Sea Level PressureIn, Max VisibilityMiles, Mean VisibilityMiles, Min VisibilityMiles, Max Wind SpeedMPH, Mean Wind SpeedMPH, Max Gust SpeedMPH,PrecipitationIn, CloudCover, Events, WindDirDegrees
2012-12-1,44,39,33,43,36,32,100,88,76,30.14,29.90,29.76,6,3,1,17,7,23,0.00,8,,154
2012-12-2,43,39,34,43,36,34,100,93,85,30.03,29.92,29.81,5,2,0,14,5,20,0.00,8,Fog,135
2012-12-3,60,50,39,55,46,31,100,86,71,29.90,29.71,29.55,10,5,1,24,12,31,0.00,6,,189
2012-12-4,41,30,19,30,18,10,70,57,43,30.42,30.15,29.89,10,10,10,20,10,30,0.00,0,,286
2012-12-5,36,24,11,18,12,8,92,67,41,30.46,30.29,30.01,10,10,10,22,9,29,0.00,2,,132
2012-12-6,46,38,30,38,31,20,92,70,47,29.97,29.88,29.78,10,10,5,18,10,24,0.19,5,Rain,227
2012-12-7,32,27,22,25,22,19,92,78,63,30.06,30.03,29.98,10,8,2,10,4,13,0.01,5,Snow,349
2012-12-8,35,27,18,24,22,17,100,82,64,30.11,30.07,30.04,10,9,5,12,4,16,0.01,3,,90
2012-12-9,31,30,28,28,26,22,100,85,69,30.11,29.94,29.78,10,2,0,16,11,23,0.75,8,Fog-Snow,76
2012-12-10,28,21,13,27,15,10,92,83,74,29.95,29.88,29.78,10,6,1,12,7,16,0.07,8,Snow,281
2012-12-11,20,11,2,14,9,0,92,85,77,30.09,29.92,29.80,10,6,0,15,6,20,T,7,Fog-Snow,218
2012-12-12,40,21,1,26,13,-1,88,68,48,30.11,30.02,29.93,10,7,0,17,8,23,0.00,4,Fog,154
2012-12-13,37,27,16,20,18,14,92,70,47,30.15,30.04,29.98,10,9,6,13,4,16,0.00,0,,207
2012-12-14,39,26,12,29,18,10,100,80,59,30.19,30.10,29.94,10,5,0,15,7,20,0.00,1,Fog,69
2012-12-15,37,36,34,36,34,30,100,88,76,29.88,29.65,29.50,9,4,0,17,7,24,0.29,8,Fog-Rain,104
2012-12-16,35,29,23,34,30,20,100,91,81,29.78,29.64,29.51,10,5,0,14,8,18,0.13,8,Fog-Snow,276
2012-12-17,24,23,21,20,18,16,92,83,74,29.80,29.77,29.71,10,10,9,14,3,18,T,8,,305
2012-12-18,29,23,16,22,18,15,92,84,75,29.86,29.74,29.65,10,9,7,12,3,14,T,6,,128
2012-12-19,32,29,25,27,26,22,92,85,78,30.04,29.97,29.85,10,7,4,9,3,12,T,8,,191
2012-12-20,30,24,17,27,23,10,92,82,71,29.94,29.80,29.67,10,4,1,24,14,36,0.26,7,Snow,1
2012-12-21,21,13,4,8,5,1,80,66,52,30.27,30.18,29.96,10,10,10,18,8,28,0.00,0,,299
2012-12-22,27,13,-1,10,6,-3,96,71,46,30.24,30.10,30.00,10,9,4,10,2,12,0.00,0,,211
2012-12-23,21,16,11,14,10,7,84,76,67,30.15,30.08,29.99,10,10,10,13,5,17,0.00,4,,7
2012-12-24,21,13,5,11,6,-2,84,70,56,30.28,30.10,30.02,10,10,10,12,5,16,T,5,,356
2012-12-25,11,4,-4,1,-3,-7,87,75,63,30.50,30.44,30.30,10,10,10,8,1,10,0.00,0,,299
2012-12-26,19,9,-2,7,1,-5,87,72,56,30.44,30.34,30.29,10,10,7,7,2,9,0.00,1,,4
2012-12-27,23,11,-2,13,6,-6,95,79,62,30.31,30.25,30.18,10,10,6,8,3,10,T,4,Snow,58
2012-12-28,23,20,17,19,16,12,92,83,74,30.18,30.05,29.97,10,4,2,10,5,13,0.07,8,Snow,35
2012-12-29,20,16,12,16,11,7,88,81,73,30.19,30.09,29.99,10,9,7,13,7,16,T,8,Snow,265
2012-12-30,23,13,2,15,6,-2,95,81,67,30.26,30.13,29.93,10,8,3,10,4,14,0.00,2,,188
2012-12-31,18,7,-5,13,4,-8,88,71,53,30.28,30.13,29.95,10,9,7,17,6,22,T,2,Snow,301